sensor_id;sensor_type;location;lat;lon;timestamp;pressure;altitude;pressure_sealevel;temperature;humidity
30682;BME280;17439;48.092;11.842;2022-08-21T00:00:23;95507.81;;;19.70;74.80
30682;BME280;17439;48.092;11.842;2022-08-21T00:03:03;95501.09;;;19.68;74.13
30682;BME280;17439;48.092;11.842;2022-08-21T00:05:33;95511.72;;;19.69;74.87
30682;BME280;17439;48.092;11.842;2022-08-21T00:08:02;95505.41;;;19.69;74.99
30682;BME280;17439;48.092;11.842;2022-08-21T00:10:29;95499.50;;;19.67;75.08
30682;BME280;17439;48.092;11.842;2022-08-21T00:12:55;95497.91;;;19.66;74.76
30682;BME280;17439;48.092;11.842;2022-08-21T00:15:26;95497.84;;;19.62;74.41
30682;BME280;17439;48.092;11.842;2022-08-21T00:17:53;95493.13;;;19.63;74.93
30682;BME280;17439;48.092;11.842;2022-08-21T00:20:21;95498.22;;;19.61;74.55
30682;BME280;17439;48.092;11.842;2022-08-21T00:22:48;95497.81;;;19.58;74.48
30682;BME280;17439;48.092;11.842;2022-08-21T00:25:17;95490.28;;;19.55;74.29
30682;BME280;17439;48.092;11.842;2022-08-21T00:27:49;95502.44;;;19.54;74.48
30682;BME280;17439;48.092;11.842;2022-08-21T00:30:17;95511.84;;;19.53;74.62
30682;BME280;17439;48.092;11.842;2022-08-21T00:32:49;95505.50;;;19.49;74.84
30682;BME280;17439;48.092;11.842;2022-08-21T00:35:19;95497.63;;;19.48;74.50
30682;BME280;17439;48.092;11.842;2022-08-21T00:37:46;95504.72;;;19.49;75.19
30682;BME280;17439;48.092;11.842;2022-08-21T00:40:17;95496.03;;;19.47;74.37
30682;BME280;17439;48.092;11.842;2022-08-21T00:42:44;95494.44;;;19.46;74.95
30682;BME280;17439;48.092;11.842;2022-08-21T00:45:19;95491.69;;;19.46;74.70
30682;BME280;17439;48.092;11.842;2022-08-21T00:47:46;95491.69;;;19.46;75.09
30682;BME280;17439;48.092;11.842;2022-08-21T00:50:12;95482.66;;;19.45;74.54
30682;BME280;17439;48.092;11.842;2022-08-21T00:52:49;95490.47;;;19.43;74.26
30682;BME280;17439;48.092;11.842;2022-08-21T00:55:18;95488.88;;;19.42;73.97
30682;BME280;17439;48.092;11.842;2022-08-21T00:57:52;95489.59;;;19.39;73.87
30682;BME280;17439;48.092;11.842;2022-08-21T01:00:25;95489.19;;;19.37;73.76
30682;BME280;17439;48.092;11.842;2022-08-21T01:02:53;95484.41;;;19.34;73.85
30682;BME280;17439;48.092;11.842;2022-08-21T01:05:20;95490.66;;;19.31;73.87
30682;BME280;17439;48.092;11.842;2022-08-21T01:07:50;95489.44;;;19.28;73.63
30682;BME280;17439;48.092;11.842;2022-08-21T01:10:17;95486.63;;;19.25;73.73
30682;BME280;17439;48.092;11.842;2022-08-21T01:12:52;95482.66;;;19.22;73.77
30682;BME280;17439;48.092;11.842;2022-08-21T01:15:20;95484.19;;;19.19;73.69
30682;BME280;17439;48.092;11.842;2022-08-21T01:17:49;95475.88;;;19.16;73.72
30682;BME280;17439;48.092;11.842;2022-08-21T01:20:15;95482.09;;;19.13;73.74
30682;BME280;17439;48.092;11.842;2022-08-21T01:22:42;95478.56;;;19.12;73.61
30682;BME280;17439;48.092;11.842;2022-08-21T01:25:11;95477.69;;;19.08;73.74
30682;BME280;17439;48.092;11.842;2022-08-21T01:27:38;95472.56;;;19.07;73.62
30682;BME280;17439;48.092;11.842;2022-08-21T01:30:16;95481.13;;;19.01;72.94
30682;BME280;17439;48.092;11.842;2022-08-21T01:32:44;95480.31;;;19.01;73.60
30682;BME280;17439;48.092;11.842;2022-08-21T01:35:13;95472.72;;;18.94;73.34
30682;BME280;17439;48.092;11.842;2022-08-21T01:37:41;95480.97;;;18.94;73.68
30682;BME280;17439;48.092;11.842;2022-08-21T01:40:08;95477.00;;;18.92;73.79
30682;BME280;17439;48.092;11.842;2022-08-21T01:42:36;95476.56;;;18.90;73.83
30682;BME280;17439;48.092;11.842;2022-08-21T01:45:04;95478.47;;;18.85;73.47
30682;BME280;17439;48.092;11.842;2022-08-21T01:47:31;95476.88;;;18.84;73.66
30682;BME280;17439;48.092;11.842;2022-08-21T01:49:58;95483.06;;;18.81;73.85
30682;BME280;17439;48.092;11.842;2022-08-21T01:52:25;95479.88;;;18.79;73.90
30682;BME280;17439;48.092;11.842;2022-08-21T01:54:52;95480.63;;;18.76;73.85
30682;BME280;17439;48.092;11.842;2022-08-21T01:57:21;95472.72;;;18.75;74.21
30682;BME280;17439;48.092;11.842;2022-08-21T01:59:51;95470.72;;;18.72;74.04
30682;BME280;17439;48.092;11.842;2022-08-21T02:02:18;95478.94;;;18.72;73.90
30682;BME280;17439;48.092;11.842;2022-08-21T02:08:02;95475.34;;;18.67;74.51
30682;BME280;17439;48.092;11.842;2022-08-21T02:10:31;95476.50;;;18.66;74.31
30682;BME280;17439;48.092;11.842;2022-08-21T02:12:58;95471.81;;;18.67;74.17
30682;BME280;17439;48.092;11.842;2022-08-21T02:15:27;95474.91;;;18.65;74.40
30682;BME280;17439;48.092;11.842;2022-08-21T02:17:56;95468.63;;;18.65;74.14
30682;BME280;17439;48.092;11.842;2022-08-21T02:20:30;95465.47;;;18.63;73.28
30682;BME280;17439;48.092;11.842;2022-08-21T02:22:57;95465.47;;;18.63;73.84
30682;BME280;17439;48.092;11.842;2022-08-21T02:25:25;95460.34;;;18.61;73.77
30682;BME280;17439;48.092;11.842;2022-08-21T02:27:53;95459.88;;;18.59;73.71
30682;BME280;17439;48.092;11.842;2022-08-21T02:30:23;95466.09;;;18.56;73.39
30682;BME280;17439;48.092;11.842;2022-08-21T02:32:50;95454.69;;;18.54;73.39
30682;BME280;17439;48.092;11.842;2022-08-21T02:35:18;95454.63;;;18.51;73.25
30682;BME280;17439;48.092;11.842;2022-08-21T02:37:51;95450.22;;;18.46;72.83
30682;BME280;17439;48.092;11.842;2022-08-21T02:40:21;95458.81;;;18.44;73.14
30682;BME280;17439;48.092;11.842;2022-08-21T02:42:48;95459.53;;;18.41;73.30
30682;BME280;17439;48.092;11.842;2022-08-21T02:45:16;95459.09;;;18.39;73.10
30682;BME280;17439;48.092;11.842;2022-08-21T02:47:59;95462.56;;;18.36;72.36
30682;BME280;17439;48.092;11.842;2022-08-21T02:50:32;95456.66;;;18.34;72.70
30682;BME280;17439;48.092;11.842;2022-08-21T02:52:59;95455.41;;;18.31;73.17
30682;BME280;17439;48.092;11.842;2022-08-21T02:55:29;95464.38;;;18.28;73.05
30682;BME280;17439;48.092;11.842;2022-08-21T02:57:57;95460.84;;;18.28;72.83
30682;BME280;17439;48.092;11.842;2022-08-21T03:00:26;95463.47;;;18.24;73.11
30682;BME280;17439;48.092;11.842;2022-08-21T03:02:54;95463.06;;;18.22;72.99
30682;BME280;17439;48.092;11.842;2022-08-21T03:05:21;95463.00;;;18.19;73.01
30682;BME280;17439;48.092;11.842;2022-08-21T03:07:49;95457.06;;;18.17;73.12
30682;BME280;17439;48.092;11.842;2022-08-21T03:10:16;95457.78;;;18.13;73.11
30682;BME280;17439;48.092;11.842;2022-08-21T03:12:42;95457.34;;;18.11;73.35
30682;BME280;17439;48.092;11.842;2022-08-21T03:15:11;95458.50;;;18.10;73.25
30682;BME280;17439;48.092;11.842;2022-08-21T03:17:39;95454.16;;;18.09;73.04
30682;BME280;17439;48.092;11.842;2022-08-21T03:20:07;95459.22;;;18.07;73.17
30682;BME280;17439;48.092;11.842;2022-08-21T03:22:34;95455.00;;;17.94;72.71
30682;BME280;17439;48.092;11.842;2022-08-21T03:25:01;95453.22;;;18.02;72.96
30682;BME280;17439;48.092;11.842;2022-08-21T03:27:32;95457.91;;;18.01;73.04
30682;BME280;17439;48.092;11.842;2022-08-21T03:30:00;95462.97;;;17.99;73.12
30682;BME280;17439;48.092;11.842;2022-08-21T03:32:27;95460.59;;;17.98;73.03
30682;BME280;17439;48.092;11.842;2022-08-21T03:34:54;95466.44;;;17.96;73.10
30682;BME280;17439;48.092;11.842;2022-08-21T03:37:20;95461.31;;;17.94;73.04
30682;BME280;17439;48.092;11.842;2022-08-21T03:39:47;95462.81;;;17.92;72.98
30682;BME280;17439;48.092;11.842;2022-08-21T03:42:13;95467.03;;;17.89;72.70
30682;BME280;17439;48.092;11.842;2022-08-21T03:44:40;95467.41;;;17.88;72.78
30682;BME280;17439;48.092;11.842;2022-08-21T03:47:07;95470.13;;;17.88;72.85
30682;BME280;17439;48.092;11.842;2022-08-21T03:49:34;95469.25;;;17.84;72.69
30682;BME280;17439;48.092;11.842;2022-08-21T03:52:00;95466.88;;;17.82;72.58
30682;BME280;17439;48.092;11.842;2022-08-21T03:54:27;95464.47;;;17.81;72.75
30682;BME280;17439;48.092;11.842;2022-08-21T03:56:54;95467.56;;;17.79;72.77
30682;BME280;17439;48.092;11.842;2022-08-21T03:59:21;95471.81;;;17.76;72.95
30682;BME280;17439;48.092;11.842;2022-08-21T04:01:57;95465.13;;;17.74;72.34
30682;BME280;17439;48.092;11.842;2022-08-21T04:04:24;95476.44;;;17.72;72.69
30682;BME280;17439;48.092;11.842;2022-08-21T04:06:51;95475.97;;;17.70;73.06
30682;BME280;17439;48.092;11.842;2022-08-21T04:09:18;95470.50;;;17.70;73.05
30682;BME280;17439;48.092;11.842;2022-08-21T04:11:45;95475.19;;;17.70;73.02
30682;BME280;17439;48.092;11.842;2022-08-21T04:14:13;95479.53;;;17.71;73.00
30682;BME280;17439;48.092;11.842;2022-08-21T04:16:40;95470.44;;;17.67;73.09
30682;BME280;17439;48.092;11.842;2022-08-21T04:19:07;95481.94;;;17.56;72.58
30682;BME280;17439;48.092;11.842;2022-08-21T04:21:36;95484.47;;;17.65;73.21
30682;BME280;17439;48.092;11.842;2022-08-21T04:24:04;95485.66;;;17.64;73.21
30682;BME280;17439;48.092;11.842;2022-08-21T04:26:31;95487.16;;;17.62;73.39
30682;BME280;17439;48.092;11.842;2022-08-21T04:28:58;95486.38;;;17.61;73.70
30682;BME280;17439;48.092;11.842;2022-08-21T04:31:24;95492.19;;;17.59;73.74
30682;BME280;17439;48.092;11.842;2022-08-21T04:33:51;95495.72;;;17.60;73.69
30682;BME280;17439;48.092;11.842;2022-08-21T04:36:18;95501.22;;;17.60;73.75
30682;BME280;17439;48.092;11.842;2022-08-21T04:38:49;95501.22;;;17.60;73.81
30682;BME280;17439;48.092;11.842;2022-08-21T04:41:17;95507.13;;;17.62;73.87
30682;BME280;17439;48.092;11.842;2022-08-21T04:43:53;95501.63;;;17.62;73.92
30682;BME280;17439;48.092;11.842;2022-08-21T04:46:20;95512.59;;;17.62;74.22
30682;BME280;17439;48.092;11.842;2022-08-21T04:48:47;95505.97;;;17.63;74.36
30682;BME280;17439;48.092;11.842;2022-08-21T04:51:34;95508.72;;;17.63;73.10
30682;BME280;17439;48.092;11.842;2022-08-21T04:54:10;95518.97;;;17.66;74.21
30682;BME280;17439;48.092;11.842;2022-08-21T04:56:51;95507.59;;;17.64;72.73
30682;BME280;17439;48.092;11.842;2022-08-21T04:59:23;95508.81;;;17.67;73.50
30682;BME280;17439;48.092;11.842;2022-08-21T05:01:51;95509.59;;;17.67;74.16
30682;BME280;17439;48.092;11.842;2022-08-21T05:04:22;95507.22;;;17.66;73.39
30682;BME280;17439;48.092;11.842;2022-08-21T05:06:53;95506.84;;;17.67;73.96
30682;BME280;17439;48.092;11.842;2022-08-21T05:09:21;95513.94;;;17.68;74.55
30682;BME280;17439;48.092;11.842;2022-08-21T05:11:48;95511.19;;;17.68;74.74
30682;BME280;17439;48.092;11.842;2022-08-21T05:14:15;95510.47;;;17.71;74.72
30682;BME280;17439;48.092;11.842;2022-08-21T05:16:42;95508.16;;;17.73;75.00
30682;BME280;17439;48.092;11.842;2022-08-21T05:19:09;95507.47;;;17.76;75.31
30682;BME280;17439;48.092;11.842;2022-08-21T05:21:42;95515.69;;;17.76;74.75
30682;BME280;17439;48.092;11.842;2022-08-21T05:24:10;95513.06;;;17.80;75.69
30682;BME280;17439;48.092;11.842;2022-08-21T05:26:37;95511.94;;;17.85;75.75
30682;BME280;17439;48.092;11.842;2022-08-21T05:29:14;95511.72;;;17.90;75.64
30682;BME280;17439;48.092;11.842;2022-08-21T05:31:42;95518.53;;;17.96;76.11
30682;BME280;17439;48.092;11.842;2022-08-21T05:34:09;95529.59;;;18.00;76.13
30682;BME280;17439;48.092;11.842;2022-08-21T05:36:35;95521.84;;;18.05;76.19
30682;BME280;17439;48.092;11.842;2022-08-21T05:39:03;95525.91;;;18.11;75.94
30682;BME280;17439;48.092;11.842;2022-08-21T05:41:29;95522.47;;;18.15;75.98
30682;BME280;17439;48.092;11.842;2022-08-21T05:43:59;95522.19;;;18.20;76.30
30682;BME280;17439;48.092;11.842;2022-08-21T05:46:26;95524.31;;;18.26;76.12
30682;BME280;17439;48.092;11.842;2022-08-21T05:48:52;95531.47;;;18.31;76.30
30682;BME280;17439;48.092;11.842;2022-08-21T05:51:19;95533.91;;;18.36;76.35
30682;BME280;17439;48.092;11.842;2022-08-21T05:53:46;95526.53;;;18.40;76.00
30682;BME280;17439;48.092;11.842;2022-08-21T05:56:13;95535.31;;;18.46;76.29
30682;BME280;17439;48.092;11.842;2022-08-21T05:58:40;95531.91;;;18.53;76.19
30682;BME280;17439;48.092;11.842;2022-08-21T06:01:07;95533.56;;;18.57;76.48
30682;BME280;17439;48.092;11.842;2022-08-21T06:03:37;95525.84;;;18.63;76.07
30682;BME280;17439;48.092;11.842;2022-08-21T06:06:04;95535.38;;;18.69;76.42
30682;BME280;17439;48.092;11.842;2022-08-21T06:08:31;95526.88;;;18.74;76.29
30682;BME280;17439;48.092;11.842;2022-08-21T06:10:59;95530.91;;;18.80;76.27
30682;BME280;17439;48.092;11.842;2022-08-21T06:13:27;95533.03;;;18.87;76.51
30682;BME280;17439;48.092;11.842;2022-08-21T06:16:06;95530.34;;;18.91;74.57
30682;BME280;17439;48.092;11.842;2022-08-21T06:18:35;95534.41;;;18.97;76.31
30682;BME280;17439;48.092;11.842;2022-08-21T06:21:02;95528.25;;;19.03;76.26
30682;BME280;17439;48.092;11.842;2022-08-21T06:23:29;95533.78;;;19.07;76.29
30682;BME280;17439;48.092;11.842;2022-08-21T06:25:59;95535.09;;;19.13;76.51
30682;BME280;17439;48.092;11.842;2022-08-21T06:28:26;95536.38;;;19.19;76.14
30682;BME280;17439;48.092;11.842;2022-08-21T06:30:53;95532.97;;;19.26;76.27
30682;BME280;17439;48.092;11.842;2022-08-21T06:33:20;95530.31;;;19.30;75.97
30682;BME280;17439;48.092;11.842;2022-08-21T06:35:46;95528.84;;;19.36;76.01
30682;BME280;17439;48.092;11.842;2022-08-21T06:38:13;95526.56;;;19.42;75.57
30682;BME280;17439;48.092;11.842;2022-08-21T06:40:40;95529.81;;;19.47;75.68
30682;BME280;17439;48.092;11.842;2022-08-21T06:43:16;95524.38;;;19.51;75.04
30682;BME280;17439;48.092;11.842;2022-08-21T06:45:43;95531.53;;;19.55;75.03
30682;BME280;17439;48.092;11.842;2022-08-21T06:48:10;95519.81;;;19.58;75.22
30682;BME280;17439;48.092;11.842;2022-08-21T06:50:43;95523.38;;;19.63;74.88
30682;BME280;17439;48.092;11.842;2022-08-21T06:53:12;95523.88;;;19.68;74.90
30682;BME280;17439;48.092;11.842;2022-08-21T06:55:40;95521.59;;;19.74;75.21
30682;BME280;17439;48.092;11.842;2022-08-21T06:58:07;95522.50;;;19.78;74.88
30682;BME280;17439;48.092;11.842;2022-08-21T07:00:35;95519.00;;;19.81;74.18
30682;BME280;17439;48.092;11.842;2022-08-21T07:03:02;95517.13;;;19.85;74.02
30682;BME280;17439;48.092;11.842;2022-08-21T07:05:29;95519.09;;;19.88;73.95
30682;BME280;17439;48.092;11.842;2022-08-21T07:07:56;95511.72;;;19.92;73.94
30682;BME280;17439;48.092;11.842;2022-08-21T07:10:25;95520.47;;;19.98;73.65
30682;BME280;17439;48.092;11.842;2022-08-21T07:12:53;95519.72;;;20.01;73.93
30682;BME280;17439;48.092;11.842;2022-08-21T07:15:30;95518.16;;;20.04;73.20
30682;BME280;17439;48.092;11.842;2022-08-21T07:17:58;95511.19;;;20.10;73.71
30682;BME280;17439;48.092;11.842;2022-08-21T07:20:27;95508.84;;;20.12;73.95
30682;BME280;17439;48.092;11.842;2022-08-21T07:22:55;95511.31;;;20.17;74.07
30682;BME280;17439;48.092;11.842;2022-08-21T07:25:23;95515.28;;;20.23;74.06
30682;BME280;17439;48.092;11.842;2022-08-21T07:27:49;95505.56;;;20.29;73.55
30682;BME280;17439;48.092;11.842;2022-08-21T07:30:16;95511.53;;;20.35;73.46
30682;BME280;17439;48.092;11.842;2022-08-21T07:32:42;95504.53;;;20.41;73.40
30682;BME280;17439;48.092;11.842;2022-08-21T07:35:09;95518.41;;;20.48;73.24
30682;BME280;17439;48.092;11.842;2022-08-21T07:37:36;95505.88;;;20.55;73.22
30682;BME280;17439;48.092;11.842;2022-08-21T07:40:03;95505.19;;;20.61;72.66
30682;BME280;17439;48.092;11.842;2022-08-21T07:42:30;95499.38;;;20.67;72.31
30682;BME280;17439;48.092;11.842;2022-08-21T07:44:57;95506.53;;;20.71;72.00
30682;BME280;17439;48.092;11.842;2022-08-21T07:47:23;95498.72;;;20.77;71.16
30682;BME280;17439;48.092;11.842;2022-08-21T07:50:07;95499.56;;;20.81;71.24
30682;BME280;17439;48.092;11.842;2022-08-21T07:52:34;95501.97;;;20.86;70.33
30682;BME280;17439;48.092;11.842;2022-08-21T07:55:00;95500.03;;;20.90;70.51
30682;BME280;17439;48.092;11.842;2022-08-21T07:57:32;95499.72;;;20.95;70.59
30682;BME280;17439;48.092;11.842;2022-08-21T07:59:59;95489.09;;;20.97;70.32
30682;BME280;17439;48.092;11.842;2022-08-21T08:02:28;95495.09;;;21.03;69.76
30682;BME280;17439;48.092;11.842;2022-08-21T08:05:06;95488.81;;;21.06;67.43
30682;BME280;17439;48.092;11.842;2022-08-21T08:07:33;95484.91;;;21.11;69.64
30682;BME280;17439;48.092;11.842;2022-08-21T08:10:01;95496.00;;;21.18;69.67
30682;BME280;17439;48.092;11.842;2022-08-21T08:12:28;95486.59;;;21.23;69.25
30682;BME280;17439;48.092;11.842;2022-08-21T08:14:59;95483.88;;;21.26;66.83
30682;BME280;17439;48.092;11.842;2022-08-21T08:17:27;95490.63;;;21.32;69.04
30682;BME280;17439;48.092;11.842;2022-08-21T08:19:53;95478.44;;;21.33;68.38
30682;BME280;17439;48.092;11.842;2022-08-21T08:22:22;95483.22;;;21.40;68.74
30682;BME280;17439;48.092;11.842;2022-08-21T08:24:50;95482.50;;;21.47;69.35
30682;BME280;17439;48.092;11.842;2022-08-21T08:27:17;95479.41;;;21.52;69.85
30682;BME280;17439;48.092;11.842;2022-08-21T08:29:45;95481.44;;;21.59;69.51
30682;BME280;17439;48.092;11.842;2022-08-21T08:32:12;95468.47;;;21.63;69.95
30682;BME280;17439;48.092;11.842;2022-08-21T08:34:39;95466.19;;;21.72;67.42
30682;BME280;17439;48.092;11.842;2022-08-21T08:37:07;95469.34;;;21.78;67.16
30682;BME280;17439;48.092;11.842;2022-08-21T08:39:35;95469.03;;;21.83;66.96
30682;BME280;17439;48.092;11.842;2022-08-21T08:45:04;95476.97;;;21.91;65.18
30682;BME280;17439;48.092;11.842;2022-08-21T08:47:36;95472.25;;;21.96;65.60
30682;BME280;17439;48.092;11.842;2022-08-21T08:50:08;95478.59;;;22.00;64.95
30682;BME280;17439;48.092;11.842;2022-08-21T08:52:43;95480.63;;;22.06;65.31
30682;BME280;17439;48.092;11.842;2022-08-21T08:55:19;95483.41;;;22.10;66.69
30682;BME280;17439;48.092;11.842;2022-08-21T08:57:53;95482.25;;;22.15;66.77
30682;BME280;17439;48.092;11.842;2022-08-21T09:00:23;95480.28;;;22.19;66.06
30682;BME280;17439;48.092;11.842;2022-08-21T09:02:53;95477.94;;;22.21;60.78
30682;BME280;17439;48.092;11.842;2022-08-21T09:05:30;95476.00;;;22.28;62.41
30682;BME280;17439;48.092;11.842;2022-08-21T09:11:14;95477.66;;;22.40;65.83
30682;BME280;17439;48.092;11.842;2022-08-21T09:22:24;95464.75;;;22.66;65.94
30682;BME280;17439;48.092;11.842;2022-08-21T09:27:39;95464.41;;;22.86;66.50
30682;BME280;17439;48.092;11.842;2022-08-21T09:30:07;95463.69;;;22.96;65.79
30682;BME280;17439;48.092;11.842;2022-08-21T09:32:35;95461.34;;;23.05;66.53
30682;BME280;17439;48.092;11.842;2022-08-21T09:35:19;95464.53;;;23.14;65.25
30682;BME280;17439;48.092;11.842;2022-08-21T09:37:53;95464.94;;;23.24;62.83
30682;BME280;17439;48.092;11.842;2022-08-21T09:40:36;95466.50;;;23.32;59.05
30682;BME280;17439;48.092;11.842;2022-08-21T09:43:13;95467.72;;;23.34;60.33
30682;BME280;17439;48.092;11.842;2022-08-21T09:45:43;95464.56;;;23.36;62.29
30682;BME280;17439;48.092;11.842;2022-08-21T09:50:37;95461.00;;;23.39;62.49
30682;BME280;17439;48.092;11.842;2022-08-21T09:53:04;95457.84;;;23.44;62.82
30682;BME280;17439;48.092;11.842;2022-08-21T09:55:34;95460.22;;;23.49;61.69
30682;BME280;17439;48.092;11.842;2022-08-21T09:58:07;95458.66;;;23.59;62.42
30682;BME280;17439;48.092;11.842;2022-08-21T10:00:35;95447.56;;;23.70;61.77
30682;BME280;17439;48.092;11.842;2022-08-21T10:03:11;95450.34;;;23.77;59.12
30682;BME280;17439;48.092;11.842;2022-08-21T10:05:39;95449.16;;;23.93;62.47
30682;BME280;17439;48.092;11.842;2022-08-21T10:08:17;95445.59;;;24.03;60.46
30682;BME280;17439;48.092;11.842;2022-08-21T10:10:44;95444.34;;;24.15;61.27
30682;BME280;17439;48.092;11.842;2022-08-21T10:19:09;95442.72;;;24.39;58.24
30682;BME280;17439;48.092;11.842;2022-08-21T10:24:24;95442.25;;;24.51;56.69
30682;BME280;17439;48.092;11.842;2022-08-21T10:27:30;95436.75;;;24.58;59.29
30682;BME280;17439;48.092;11.842;2022-08-21T10:30:11;95438.66;;;24.72;56.42
30682;BME280;17439;48.092;11.842;2022-08-21T10:32:49;95440.97;;;24.85;53.02
30682;BME280;17439;48.092;11.842;2022-08-21T10:35:23;95436.16;;;24.92;55.56
30682;BME280;17439;48.092;11.842;2022-08-21T10:41:13;95422.63;;;25.05;49.48
30682;BME280;17439;48.092;11.842;2022-08-21T10:43:59;95428.06;;;25.20;53.90
30682;BME280;17439;48.092;11.842;2022-08-21T10:49:12;95416.81;;;25.45;52.85
30682;BME280;17439;48.092;11.842;2022-08-21T10:51:55;95416.00;;;25.48;51.71
30682;BME280;17439;48.092;11.842;2022-08-21T10:57:05;95423.03;;;25.63;52.65
30682;BME280;17439;48.092;11.842;2022-08-21T10:59:44;95417.41;;;25.70;48.71
30682;BME280;17439;48.092;11.842;2022-08-21T11:02:17;95412.53;;;25.82;52.98
30682;BME280;17439;48.092;11.842;2022-08-21T11:05:48;95405.28;;;25.95;55.28
30682;BME280;17439;48.092;11.842;2022-08-21T11:07:55;95398.38;;;26.14;53.37
30682;BME280;17439;48.092;11.842;2022-08-21T11:18:46;95404.19;;;26.58;49.96
30682;BME280;17439;48.092;11.842;2022-08-21T11:24:15;95401.97;;;26.46;50.38
30682;BME280;17439;48.092;11.842;2022-08-21T11:26:49;95400.81;;;26.43;51.93
30682;BME280;17439;48.092;11.842;2022-08-21T11:29:28;95392.88;;;26.41;49.84
30682;BME280;17439;48.092;11.842;2022-08-21T11:43:12;95369.16;;;26.33;51.92
30682;BME280;17439;48.092;11.842;2022-08-21T11:45:53;95373.00;;;26.43;45.09
30682;BME280;17439;48.092;11.842;2022-08-21T11:50:54;95370.66;;;26.41;49.33
30682;BME280;17439;48.092;11.842;2022-08-21T11:54:28;95371.41;;;26.46;50.94
30682;BME280;17439;48.092;11.842;2022-08-21T11:56:40;95367.69;;;26.56;49.37
30682;BME280;17439;48.092;11.842;2022-08-21T11:59:11;95368.00;;;26.65;48.06
30682;BME280;17439;48.092;11.842;2022-08-21T12:01:43;95365.91;;;26.73;48.98
30682;BME280;17439;48.092;11.842;2022-08-21T12:06:55;95367.91;;;27.00;48.26
30682;BME280;17439;48.092;11.842;2022-08-21T12:12:11;95357.59;;;27.24;51.19
30682;BME280;17439;48.092;11.842;2022-08-21T12:14:46;95354.13;;;27.43;49.87
30682;BME280;17439;48.092;11.842;2022-08-21T12:17:37;95356.25;;;27.59;50.11
30682;BME280;17439;48.092;11.842;2022-08-21T12:23:01;95358.41;;;27.95;43.42
30682;BME280;17439;48.092;11.842;2022-08-21T12:26:20;95360.38;;;27.95;43.89
30682;BME280;17439;48.092;11.842;2022-08-21T12:28:27;95356.75;;;27.98;41.50
30682;BME280;17439;48.092;11.842;2022-08-21T12:30:55;95348.94;;;27.89;44.04
30682;BME280;17439;48.092;11.842;2022-08-21T12:36:10;95363.66;;;27.66;43.88
30682;BME280;17439;48.092;11.842;2022-08-21T12:38:46;95357.16;;;27.53;44.60
30682;BME280;17439;48.092;11.842;2022-08-21T12:41:20;95357.47;;;27.35;44.79
30682;BME280;17439;48.092;11.842;2022-08-21T12:43:57;95348.88;;;27.22;45.90
30682;BME280;17439;48.092;11.842;2022-08-21T12:46:39;95347.53;;;27.06;46.40
30682;BME280;17439;48.092;11.842;2022-08-21T12:49:16;95346.53;;;26.93;44.96
30682;BME280;17439;48.092;11.842;2022-08-21T12:52:00;95338.03;;;26.76;45.99
30682;BME280;17439;48.092;11.842;2022-08-21T12:54:30;95333.03;;;26.64;45.18
30682;BME280;17439;48.092;11.842;2022-08-21T12:57:04;95335.22;;;26.49;45.77
30682;BME280;17439;48.092;11.842;2022-08-21T12:59:31;95325.06;;;26.35;47.46
30682;BME280;17439;48.092;11.842;2022-08-21T13:02:01;95334.38;;;26.21;48.34
30682;BME280;17439;48.092;11.842;2022-08-21T13:04:36;95341.63;;;26.12;48.07
30682;BME280;17439;48.092;11.842;2022-08-21T13:07:09;95337.75;;;26.05;47.86
30682;BME280;17439;48.092;11.842;2022-08-21T13:09:48;95329.50;;;25.98;48.05
30682;BME280;17439;48.092;11.842;2022-08-21T13:12:17;95331.06;;;25.96;50.28
30682;BME280;17439;48.092;11.842;2022-08-21T13:14:45;95325.94;;;25.98;50.32
30682;BME280;17439;48.092;11.842;2022-08-21T13:17:16;95320.34;;;26.01;50.98
30682;BME280;17439;48.092;11.842;2022-08-21T13:20:00;95318.63;;;26.11;47.89
30682;BME280;17439;48.092;11.842;2022-08-21T13:22:28;95321.28;;;26.22;49.53
30682;BME280;17439;48.092;11.842;2022-08-21T13:25:01;95315.53;;;26.36;48.16
30682;BME280;17439;48.092;11.842;2022-08-21T13:27:33;95307.44;;;26.49;45.22
30682;BME280;17439;48.092;11.842;2022-08-21T13:30:05;95315.22;;;26.58;45.52
30682;BME280;17439;48.092;11.842;2022-08-21T13:32:34;95307.94;;;26.71;43.06
30682;BME280;17439;48.092;11.842;2022-08-21T13:35:14;95311.84;;;26.74;44.92
30682;BME280;17439;48.092;11.842;2022-08-21T13:37:43;95307.72;;;26.86;43.11
30682;BME280;17439;48.092;11.842;2022-08-21T13:40:14;95306.41;;;26.94;42.41
30682;BME280;17439;48.092;11.842;2022-08-21T13:42:44;95300.84;;;26.94;44.20
30682;BME280;17439;48.092;11.842;2022-08-21T13:45:29;95303.47;;;27.05;40.63
30682;BME280;17439;48.092;11.842;2022-08-21T13:47:56;95298.81;;;26.98;43.42
30682;BME280;17439;48.092;11.842;2022-08-21T13:50:24;95303.28;;;26.92;44.44
30682;BME280;17439;48.092;11.842;2022-08-21T13:53:01;95300.09;;;26.90;42.30
30682;BME280;17439;48.092;11.842;2022-08-21T13:55:38;95305.72;;;26.86;42.45
30682;BME280;17439;48.092;11.842;2022-08-21T13:58:05;95299.97;;;26.73;43.82
30682;BME280;17439;48.092;11.842;2022-08-21T14:00:35;95297.31;;;26.63;45.46
30682;BME280;17439;48.092;11.842;2022-08-21T14:03:06;95297.00;;;26.57;44.33
30682;BME280;17439;48.092;11.842;2022-08-21T14:05:43;95290.34;;;26.51;45.00
30682;BME280;17439;48.092;11.842;2022-08-21T14:08:14;95291.59;;;26.46;46.43
30682;BME280;17439;48.092;11.842;2022-08-21T14:10:52;95295.16;;;26.47;46.93
30682;BME280;17439;48.092;11.842;2022-08-21T14:13:38;95287.22;;;26.45;43.01
30682;BME280;17439;48.092;11.842;2022-08-21T14:16:43;95287.56;;;26.51;45.38
30682;BME280;17439;48.092;11.842;2022-08-21T14:19:23;95300.03;;;26.70;45.72
30682;BME280;17439;48.092;11.842;2022-08-21T14:21:50;95291.13;;;26.78;46.38
30682;BME280;17439;48.092;11.842;2022-08-21T14:26:55;95280.28;;;26.88;46.62